createdAt,value
2022-09-20T00:00:43.030Z,100.00
2022-09-20T00:03:30.307Z,100.00
2022-09-20T00:06:03.139Z,100.00
2022-09-20T00:08:32.782Z,100.00
2022-09-20T00:11:02.583Z,100.00
2022-09-20T00:13:31.570Z,100.00
2022-09-20T00:16:04.489Z,100.00
2022-09-20T00:18:33.602Z,100.00
2022-09-20T00:21:02.946Z,100.00
2022-09-20T00:23:32.254Z,100.00
2022-09-20T00:26:03.427Z,100.00
2022-09-20T00:28:33.965Z,100.00
2022-09-20T00:31:03.487Z,100.00
2022-09-20T00:33:46.930Z,100.00
2022-09-20T00:36:16.147Z,100.00
2022-09-20T00:38:45.028Z,100.00
2022-09-20T00:41:13.761Z,100.00
2022-09-20T00:43:45.903Z,100.00
2022-09-20T00:46:23.164Z,100.00
2022-09-20T00:48:55.315Z,100.00
2022-09-20T00:51:28.636Z,100.00
2022-09-20T00:54:03.356Z,100.00
2022-09-20T00:56:37.642Z,100.00
2022-09-20T00:59:16.629Z,100.00
2022-09-20T01:01:53.008Z,100.00
2022-09-20T01:04:25.179Z,100.00
2022-09-20T01:06:57.948Z,100.00
2022-09-20T01:09:27.057Z,100.00
2022-09-20T01:11:58.086Z,100.00
2022-09-20T01:14:27.217Z,100.00
2022-09-20T01:17:04.329Z,100.00
2022-09-20T01:19:40.874Z,100.00
2022-09-20T01:22:16.135Z,100.00
2022-09-20T01:24:50.962Z,100.00
2022-09-20T01:27:26.838Z,100.00
2022-09-20T01:30:05.683Z,100.00
2022-09-20T01:32:50.487Z,100.00
2022-09-20T01:35:26.043Z,100.00
2022-09-20T01:38:19.960Z,100.00
2022-09-20T01:40:59.192Z,100.00
2022-09-20T01:43:34.444Z,100.00
2022-09-20T01:46:12.202Z,100.00
2022-09-20T01:48:44.729Z,100.00
2022-09-20T01:51:57.629Z,100.00
2022-09-20T01:54:58.123Z,100.00
2022-09-20T01:58:05.200Z,100.00
2022-09-20T02:00:49.892Z,100.00
2022-09-20T02:03:51.398Z,100.00
2022-09-20T02:06:34.469Z,100.00
2022-09-20T02:09:32.772Z,100.00
2022-09-20T02:12:33.506Z,100.00
2022-09-20T02:15:16.351Z,100.00
2022-09-20T02:17:55.446Z,100.00
2022-09-20T02:20:39.110Z,100.00
2022-09-20T02:23:21.431Z,100.00
2022-09-20T02:26:15.261Z,100.00
2022-09-20T02:29:00.445Z,100.00
2022-09-20T02:31:43.917Z,100.00
2022-09-20T02:34:39.419Z,100.00
2022-09-20T02:37:27.079Z,100.00
2022-09-20T02:40:14.139Z,100.00
2022-09-20T02:42:48.191Z,100.00
2022-09-20T02:45:30.640Z,100.00
2022-09-20T02:48:04.736Z,100.00
2022-09-20T02:50:42.764Z,100.00
2022-09-20T02:53:27.737Z,100.00
2022-09-20T02:56:05.376Z,100.00
2022-09-20T02:58:45.283Z,100.00
2022-09-20T03:01:31.495Z,100.00
2022-09-20T03:04:23.273Z,100.00
2022-09-20T03:07:01.851Z,100.00
2022-09-20T03:09:38.242Z,100.00
2022-09-20T03:12:22.851Z,100.00
2022-09-20T03:15:04.753Z,100.00
2022-09-20T03:17:44.669Z,100.00
2022-09-20T03:20:29.888Z,100.00
2022-09-20T03:23:10.410Z,100.00
2022-09-20T03:25:47.732Z,100.00
2022-09-20T03:28:50.354Z,100.00
2022-09-20T03:31:34.058Z,100.00
2022-09-20T03:34:16.207Z,100.00
2022-09-20T03:37:08.334Z,100.00
2022-09-20T03:40:18.657Z,100.00
2022-09-20T03:42:53.004Z,100.00
2022-09-20T03:45:38.405Z,100.00
2022-09-20T03:48:44.147Z,100.00
2022-09-20T03:51:23.242Z,100.00
2022-09-20T03:54:16.638Z,100.00
2022-09-20T03:57:23.354Z,100.00
2022-09-20T04:00:16.163Z,100.00
2022-09-20T04:03:06.186Z,100.00
2022-09-20T04:05:47.170Z,100.00
2022-09-20T04:08:38.053Z,100.00
2022-09-20T04:11:16.375Z,100.00
2022-09-20T04:13:57.386Z,100.00
2022-09-20T04:16:48.364Z,100.00
2022-09-20T04:19:26.785Z,100.00
2022-09-20T04:22:08.547Z,100.00
2022-09-20T04:24:56.529Z,100.00
2022-09-20T04:27:45.683Z,100.00
2022-09-20T04:30:32.171Z,100.00
2022-09-20T04:33:14.243Z,100.00
2022-09-20T04:36:20.416Z,100.00
2022-09-20T04:39:08.635Z,100.00
2022-09-20T04:42:10.245Z,100.00
2022-09-20T04:45:08.133Z,100.00
2022-09-20T04:48:19.812Z,100.00
2022-09-20T04:51:15.751Z,100.00
2022-09-20T04:54:28.480Z,100.00
2022-09-20T04:57:25.244Z,100.00
2022-09-20T05:00:07.909Z,100.00
2022-09-20T05:03:20.936Z,100.00
2022-09-20T05:06:29.523Z,100.00
2022-09-20T05:09:44.304Z,100.00
2022-09-20T05:12:36.732Z,100.00
2022-09-20T05:15:22.588Z,100.00
2022-09-20T05:18:32.475Z,100.00
2022-09-20T05:21:23.743Z,100.00
2022-09-20T05:24:12.810Z,100.00
2022-09-20T05:26:55.209Z,100.00
2022-09-20T05:29:33.620Z,100.00
2022-09-20T05:32:14.787Z,100.00
2022-09-20T05:34:50.515Z,100.00
2022-09-20T05:37:31.763Z,100.00
2022-09-20T05:40:13.800Z,100.00
2022-09-20T05:42:50.336Z,100.00
2022-09-20T05:45:40.759Z,100.00
2022-09-20T05:48:17.550Z,100.00
2022-09-20T05:50:54.790Z,100.00
2022-09-20T05:53:53.273Z,100.00
2022-09-20T05:56:36.004Z,100.00
2022-09-20T05:59:22.039Z,100.00
2022-09-20T06:02:10.774Z,100.00
2022-09-20T06:04:49.853Z,100.00
2022-09-20T06:07:29.391Z,100.00
2022-09-20T06:10:30.576Z,100.00
2022-09-20T06:13:12.362Z,100.00
2022-09-20T06:15:51.010Z,100.00
2022-09-20T06:18:26.406Z,100.00
2022-09-20T06:21:07.551Z,100.00
2022-09-20T06:23:36.731Z,100.00
2022-09-20T06:26:10.661Z,100.00
2022-09-20T06:28:42.994Z,100.00
2022-09-20T06:31:11.856Z,100.00
2022-09-20T06:33:46.525Z,100.00
2022-09-20T06:36:38.970Z,100.00
2022-09-20T06:39:35.942Z,100.00
2022-09-20T06:42:06.202Z,100.00
2022-09-20T06:44:37.623Z,100.00
2022-09-20T06:47:07.774Z,100.00
2022-09-20T06:49:37.164Z,100.00
2022-09-20T06:52:06.735Z,100.00
2022-09-20T06:54:40.093Z,100.00
2022-09-20T06:57:10.430Z,100.00
2022-09-20T06:59:39.105Z,100.00
2022-09-20T07:02:08.172Z,100.00
2022-09-20T07:04:37.243Z,100.00
2022-09-20T07:07:09.656Z,100.00
2022-09-20T07:09:38.642Z,100.00
2022-09-20T07:12:11.493Z,100.00
2022-09-20T07:14:40.233Z,100.00
2022-09-20T07:17:14.208Z,100.00
2022-09-20T07:19:42.934Z,100.00
2022-09-20T07:22:11.730Z,100.00
2022-09-20T07:24:40.652Z,100.00
2022-09-20T07:27:12.384Z,100.00
2022-09-20T07:29:41.075Z,100.00
2022-09-20T07:32:10.040Z,100.00
2022-09-20T07:34:38.708Z,100.00
2022-09-20T07:37:07.404Z,100.00
2022-09-20T07:39:36.095Z,100.00
2022-09-20T07:42:06.805Z,100.00
2022-09-20T07:44:38.830Z,100.00
2022-09-20T07:47:09.619Z,100.00
2022-09-20T07:49:38.440Z,100.00
2022-09-20T07:52:10.479Z,100.00
2022-09-20T07:54:39.286Z,100.00
2022-09-20T07:57:08.068Z,100.00
2022-09-20T07:59:37.050Z,100.00
2022-09-20T08:02:06.075Z,100.00
2022-09-20T08:04:35.073Z,100.00
2022-09-20T08:07:03.761Z,100.00
2022-09-20T08:09:32.714Z,100.00
2022-09-20T08:14:05.302Z,100.00
2022-09-20T08:14:50.576Z,100.00
2022-09-20T08:17:19.135Z,100.00
2022-09-20T08:19:47.832Z,100.00
2022-09-20T08:22:16.547Z,100.00
2022-09-20T08:24:46.541Z,100.00
2022-09-20T08:27:15.644Z,100.00
2022-09-20T08:29:44.297Z,100.00
2022-09-20T08:32:16.013Z,100.00
2022-09-20T08:34:49.299Z,100.00
2022-09-20T08:37:18.657Z,100.00
2022-09-20T08:40:03.720Z,100.00
2022-09-20T08:42:42.130Z,100.00
2022-09-20T08:45:34.554Z,100.00
2022-09-20T08:48:14.217Z,100.00
2022-09-20T08:50:44.830Z,100.00
2022-09-20T08:53:15.022Z,100.00
2022-09-20T08:55:44.215Z,100.00
2022-09-20T08:58:13.632Z,100.00
2022-09-20T09:00:47.272Z,100.00
2022-09-20T09:03:18.135Z,100.00
2022-09-20T09:05:52.164Z,100.00
2022-09-20T09:08:24.943Z,100.00
2022-09-20T09:10:56.463Z,100.00
2022-09-20T09:13:33.649Z,100.00
2022-09-20T09:16:10.045Z,100.00
2022-09-20T09:18:41.729Z,100.00
2022-09-20T09:21:19.516Z,100.00
2022-09-20T09:23:52.925Z,100.00
2022-09-20T09:26:23.781Z,99.79
2022-09-20T09:29:17.496Z,100.00
2022-09-20T09:31:51.186Z,100.00
2022-09-20T09:34:28.928Z,99.74
2022-09-20T09:36:58.579Z,99.83
2022-09-20T09:39:29.061Z,96.41
2022-09-20T09:42:00.266Z,95.18
2022-09-20T09:44:33.395Z,93.46
2022-09-20T09:47:02.430Z,94.07
2022-09-20T09:49:35.370Z,93.51
2022-09-20T09:52:12.425Z,93.53
2022-09-20T09:54:46.376Z,93.26
2022-09-20T09:57:33.231Z,93.48
2022-09-20T10:00:22.454Z,93.87
2022-09-20T10:03:31.723Z,93.87
2022-09-20T10:06:16.145Z,93.54
2022-09-20T10:08:59.172Z,93.78
2022-09-20T10:11:36.979Z,94.57
2022-09-20T10:14:20.029Z,94.22
2022-09-20T10:17:06.180Z,93.28
2022-09-20T10:19:50.207Z,93.37
2022-09-20T10:22:28.603Z,93.53
2022-09-20T10:25:09.978Z,93.79
2022-09-20T10:27:54.335Z,93.75
2022-09-20T10:30:26.106Z,93.68
2022-09-20T10:33:03.313Z,94.08
2022-09-20T10:36:21.686Z,94.42
2022-09-20T10:39:25.371Z,94.53
2022-09-20T10:42:21.205Z,94.68
2022-09-20T10:45:09.512Z,94.65
2022-09-20T10:47:50.992Z,94.11
2022-09-20T10:50:30.653Z,93.57
2022-09-20T10:53:12.585Z,93.34
2022-09-20T10:55:51.556Z,93.74
2022-09-20T10:58:51.564Z,94.10
2022-09-20T11:01:30.703Z,93.93
2022-09-20T11:04:24.793Z,93.04
2022-09-20T11:07:02.755Z,92.80
2022-09-20T11:09:35.147Z,92.60
2022-09-20T11:12:15.726Z,92.13
2022-09-20T11:14:49.806Z,92.22
2022-09-20T11:17:25.200Z,92.35
2022-09-20T11:20:04.709Z,92.15
2022-09-20T11:22:40.656Z,91.42
2022-09-20T11:25:20.352Z,91.92
2022-09-20T11:27:55.483Z,92.19
2022-09-20T11:30:25.052Z,91.29
2022-09-20T11:33:00.464Z,90.49
2022-09-20T11:35:34.167Z,90.32
2022-09-20T11:38:13.636Z,90.66
2022-09-20T11:40:47.662Z,90.85
2022-09-20T11:43:18.353Z,91.29
2022-09-20T11:45:53.009Z,90.68
2022-09-20T11:48:29.087Z,90.65
2022-09-20T11:51:30.887Z,90.47
2022-09-20T11:54:22.326Z,89.27
2022-09-20T11:56:53.064Z,88.73
2022-09-20T11:59:33.788Z,88.62
2022-09-20T12:02:12.734Z,88.23
2022-09-20T12:04:48.970Z,89.26
2022-09-20T12:07:22.894Z,88.97
2022-09-20T12:09:58.373Z,87.70
2022-09-20T12:12:38.960Z,87.06
2022-09-20T12:15:23.168Z,86.57
2022-09-20T12:18:29.704Z,86.24
2022-09-20T12:21:01.602Z,86.19
2022-09-20T12:24:08.797Z,86.48
2022-09-20T12:26:48.768Z,86.61
2022-09-20T12:29:54.980Z,86.96
2022-09-20T12:32:45.670Z,85.99
2022-09-20T12:35:58.713Z,84.84
2022-09-20T12:38:33.902Z,85.10
2022-09-20T12:41:15.333Z,84.53
2022-09-20T12:44:05.023Z,85.05
2022-09-20T12:46:42.497Z,85.45
2022-09-20T12:49:55.163Z,85.94
2022-09-20T12:52:52.846Z,85.15
2022-09-20T12:55:45.019Z,85.01
2022-09-20T12:58:41.012Z,83.72
2022-09-20T13:01:31.251Z,83.69
2022-09-20T13:04:55.746Z,83.96
2022-09-20T13:07:52.201Z,84.17
2022-09-20T13:10:30.900Z,84.59
2022-09-20T13:13:11.784Z,84.64
2022-09-20T13:15:41.569Z,84.72
2022-09-20T13:18:14.954Z,85.50
2022-09-20T13:20:45.621Z,85.11
2022-09-20T13:23:22.812Z,84.53
2022-09-20T13:25:56.966Z,84.24
2022-09-20T13:28:34.715Z,83.83
2022-09-20T13:31:34.632Z,84.50
2022-09-20T13:34:21.815Z,85.01
2022-09-20T13:36:56.149Z,84.92
2022-09-20T13:39:29.399Z,85.42
2022-09-20T13:42:06.378Z,85.75
2022-09-20T13:44:36.738Z,85.98
2022-09-20T13:47:22.515Z,85.79
2022-09-20T13:49:51.465Z,85.75
2022-09-20T13:52:29.148Z,85.94
2022-09-20T13:54:58.906Z,85.43
2022-09-20T13:57:30.725Z,85.10
2022-09-20T13:59:59.814Z,84.67
2022-09-20T14:02:33.176Z,85.17
2022-09-20T14:05:05.488Z,85.14
2022-09-20T14:07:36.253Z,85.88
2022-09-20T14:10:04.847Z,85.28
2022-09-20T14:12:35.232Z,85.42
2022-09-20T14:15:10.479Z,85.13
2022-09-20T14:17:39.716Z,84.70
2022-09-20T14:20:15.374Z,84.12
2022-09-20T14:22:44.991Z,83.96
2022-09-20T14:25:25.394Z,84.33
2022-09-20T14:28:16.232Z,84.39
2022-09-20T14:30:48.904Z,84.31
2022-09-20T14:33:20.994Z,84.25
2022-09-20T14:35:51.613Z,84.25
2022-09-20T14:38:27.081Z,84.14
2022-09-20T14:40:56.570Z,84.50
2022-09-20T14:43:30.761Z,84.32
2022-09-20T14:46:02.603Z,83.97
2022-09-20T14:48:35.304Z,84.29
2022-09-20T14:51:21.781Z,84.38
2022-09-20T14:53:53.266Z,83.64
2022-09-20T14:56:35.507Z,83.51
2022-09-20T14:59:25.960Z,83.50
2022-09-20T15:02:04.649Z,83.62
2022-09-20T15:04:37.281Z,83.89
2022-09-20T15:07:09.919Z,83.39
2022-09-20T15:09:38.733Z,83.15
2022-09-20T15:12:15.196Z,83.29
2022-09-20T15:14:43.943Z,83.29
2022-09-20T15:17:15.215Z,82.92
2022-09-20T15:19:44.307Z,82.61
2022-09-20T15:22:13.814Z,82.15
2022-09-20T15:24:44.462Z,82.44
2022-09-20T15:27:12.276Z,82.10
2022-09-20T15:29:41.062Z,82.21
2022-09-20T15:32:10.777Z,82.42
2022-09-20T15:34:39.540Z,82.50
2022-09-20T15:37:08.365Z,82.59
2022-09-20T15:39:37.109Z,82.43
2022-09-20T15:42:06.676Z,82.75
2022-09-20T15:44:35.874Z,82.98
2022-09-20T15:47:04.869Z,83.25
2022-09-20T15:49:34.571Z,83.06
2022-09-20T15:52:03.656Z,83.04
2022-09-20T15:54:32.469Z,82.80
2022-09-20T15:57:01.244Z,83.11
2022-09-20T15:59:32.395Z,83.03
2022-09-20T16:02:01.636Z,83.34
2022-09-20T16:04:31.342Z,83.48
2022-09-20T16:07:00.431Z,83.61
2022-09-20T16:09:31.187Z,83.09
2022-09-20T16:12:00.232Z,83.36
2022-09-20T16:14:28.790Z,83.41
2022-09-20T16:16:57.475Z,83.74
2022-09-20T16:19:26.476Z,83.56
2022-09-20T16:21:58.530Z,83.80
2022-09-20T16:24:29.333Z,83.92
2022-09-20T16:27:00.183Z,84.42
2022-09-20T16:29:29.525Z,84.49
2022-09-20T16:31:59.568Z,84.83
2022-09-20T16:34:30.725Z,84.54
2022-09-20T16:37:02.963Z,84.90
2022-09-20T16:39:32.803Z,84.93
2022-09-20T16:42:04.160Z,84.84
2022-09-20T16:44:34.556Z,85.18
2022-09-20T16:47:07.370Z,85.15
2022-09-20T16:49:36.842Z,85.26
2022-09-20T16:52:08.487Z,85.31
2022-09-20T16:54:37.620Z,85.51
2022-09-20T16:57:06.455Z,85.29
2022-09-20T16:59:34.988Z,85.62
2022-09-20T17:02:05.390Z,85.38
2022-09-20T17:04:33.288Z,85.51
2022-09-20T17:07:01.975Z,85.64
2022-09-20T17:09:30.728Z,85.47
2022-09-20T17:11:59.571Z,85.55
2022-09-20T17:14:29.082Z,85.93
2022-09-20T17:16:58.237Z,85.77
2022-09-20T17:19:26.850Z,85.82
2022-09-20T17:21:55.570Z,85.64
2022-09-20T17:24:26.277Z,85.70
2022-09-20T17:26:54.917Z,85.71
2022-09-20T17:29:23.464Z,86.02
2022-09-20T17:31:55.655Z,85.57
2022-09-20T17:34:28.873Z,85.72
2022-09-20T17:36:57.426Z,85.94
2022-09-20T17:39:27.027Z,85.92
2022-09-20T17:41:55.806Z,86.00
2022-09-20T17:44:24.549Z,85.99
2022-09-20T17:46:53.471Z,86.06
2022-09-20T17:49:27.152Z,85.80
2022-09-20T17:51:57.835Z,85.76
2022-09-20T17:54:26.586Z,86.24
2022-09-20T17:56:55.426Z,86.21
2022-09-20T17:59:24.369Z,86.38
2022-09-20T18:01:54.111Z,86.37
2022-09-20T18:04:24.541Z,86.45
2022-09-20T18:06:54.846Z,86.18
2022-09-20T18:09:25.018Z,86.26
2022-09-20T18:11:55.126Z,86.49
2022-09-20T18:14:24.302Z,86.75
2022-09-20T18:16:54.480Z,86.74
2022-09-20T18:19:23.213Z,86.79
2022-09-20T18:21:52.096Z,86.77
2022-09-20T18:24:21.271Z,86.87
2022-09-20T18:26:49.908Z,87.12
2022-09-20T18:29:18.817Z,87.41
2022-09-20T18:31:49.875Z,87.66
2022-09-20T18:34:19.963Z,87.96
2022-09-20T18:36:52.629Z,88.07
2022-09-20T18:39:22.455Z,88.51
2022-09-20T18:41:52.536Z,88.45
2022-09-20T18:44:22.155Z,88.64
2022-09-20T18:46:54.355Z,88.68
2022-09-20T18:49:24.837Z,88.73
2022-09-20T18:51:53.528Z,88.86
2022-09-20T18:54:22.944Z,88.99
2022-09-20T18:56:53.271Z,89.34
2022-09-20T18:59:25.972Z,89.35
2022-09-20T19:02:26.145Z,89.42
2022-09-20T19:05:13.363Z,89.78
2022-09-20T19:07:57.867Z,90.28
2022-09-20T19:10:38.117Z,90.41
2022-09-20T19:13:11.781Z,90.39
2022-09-20T19:16:15.727Z,90.43
2022-09-20T19:19:14.084Z,90.78
2022-09-20T19:21:55.456Z,90.73
2022-09-20T19:24:33.951Z,90.80
2022-09-20T19:27:03.089Z,91.15
2022-09-20T19:29:33.580Z,91.22
2022-09-20T19:32:02.041Z,91.08
2022-09-20T19:34:32.823Z,91.43
2022-09-20T19:37:08.282Z,91.19
2022-09-20T19:39:52.005Z,91.30
2022-09-20T19:42:31.442Z,91.21
2022-09-20T19:45:14.104Z,91.01
2022-09-20T19:47:52.445Z,91.14
2022-09-20T19:50:29.260Z,90.98
2022-09-20T19:52:58.970Z,91.18
2022-09-20T19:55:28.985Z,90.76
2022-09-20T19:57:59.490Z,90.70
2022-09-20T20:00:29.457Z,90.82
2022-09-20T20:02:59.396Z,90.87
2022-09-20T20:05:28.636Z,90.99
2022-09-20T20:08:12.579Z,91.23
2022-09-20T20:10:57.444Z,91.14
2022-09-20T20:13:52.768Z,91.46
2022-09-20T20:16:28.058Z,91.31
2022-09-20T20:19:11.489Z,91.58
2022-09-20T20:21:51.731Z,91.05
2022-09-20T20:24:30.770Z,91.38
2022-09-20T20:27:02.823Z,91.37
2022-09-20T20:29:31.941Z,91.47
2022-09-20T20:32:00.642Z,91.18
2022-09-20T20:34:32.651Z,91.11
2022-09-20T20:37:04.103Z,91.01
2022-09-20T20:39:33.457Z,91.31
2022-09-20T20:42:03.796Z,91.39
2022-09-20T20:44:36.335Z,91.38
2022-09-20T20:47:06.878Z,91.39
2022-09-20T20:49:35.806Z,91.13
2022-09-20T20:52:05.298Z,91.13
2022-09-20T20:54:34.389Z,90.89
2022-09-20T20:57:03.743Z,91.03
2022-09-20T20:59:33.679Z,90.79
2022-09-20T21:02:07.150Z,91.03
2022-09-20T21:04:39.326Z,90.97
2022-09-20T21:07:08.094Z,91.32
2022-09-20T21:09:39.080Z,91.46
2022-09-20T21:12:08.819Z,91.64
2022-09-20T21:14:37.542Z,91.79
2022-09-20T21:17:06.290Z,91.73
2022-09-20T21:19:34.899Z,91.81
2022-09-20T21:22:03.637Z,91.99
2022-09-20T21:24:32.841Z,92.31
2022-09-20T21:27:04.521Z,92.25
2022-09-20T21:29:34.054Z,92.34
2022-09-20T21:32:03.066Z,92.51
2022-09-20T21:34:31.877Z,92.44
2022-09-20T21:37:00.516Z,92.67
2022-09-20T21:39:29.247Z,92.74
2022-09-20T21:41:58.464Z,92.02
2022-09-20T21:44:27.007Z,92.22
2022-09-20T21:46:55.575Z,91.93
2022-09-20T21:49:24.209Z,91.92
2022-09-20T21:51:52.925Z,92.40
2022-09-20T21:54:22.085Z,92.43
2022-09-20T21:56:55.006Z,92.18
2022-09-20T21:59:27.318Z,92.25
2022-09-20T22:01:57.559Z,92.44
2022-09-20T22:04:28.683Z,92.63
2022-09-20T22:06:57.844Z,92.39
2022-09-20T22:09:26.455Z,92.51
2022-09-20T22:11:55.435Z,92.80
2022-09-20T22:14:24.189Z,92.54
2022-09-20T22:16:52.938Z,92.44
2022-09-20T22:19:21.478Z,92.53
2022-09-20T22:21:51.333Z,92.76
2022-09-20T22:24:20.363Z,92.77
2022-09-20T22:26:50.585Z,92.94
2022-09-20T22:29:19.819Z,92.75
2022-09-20T22:31:50.739Z,92.86
2022-09-20T22:34:21.140Z,92.75
2022-09-20T22:36:50.281Z,92.89
2022-09-20T22:39:18.956Z,92.89
2022-09-20T22:41:50.665Z,93.11
2022-09-20T22:44:19.640Z,93.21
2022-09-20T22:46:48.451Z,93.34
2022-09-20T22:49:17.526Z,93.16
2022-09-20T22:51:46.503Z,93.38
2022-09-20T22:54:15.066Z,93.76
2022-09-20T22:56:44.155Z,93.53
2022-09-20T22:59:14.424Z,93.48
2022-09-20T23:01:46.863Z,93.72
2022-09-20T23:04:18.472Z,93.81
2022-09-20T23:06:51.301Z,93.91
2022-09-20T23:09:20.380Z,93.99
2022-09-20T23:11:49.605Z,94.08
2022-09-20T23:14:20.562Z,94.03
2022-09-20T23:16:49.918Z,93.83
2022-09-20T23:19:20.062Z,93.91
2022-09-20T23:21:48.752Z,94.10
2022-09-20T23:24:17.771Z,94.38
2022-09-20T23:26:46.857Z,94.16
2022-09-20T23:29:16.814Z,94.26
2022-09-20T23:31:47.515Z,94.22
2022-09-20T23:34:18.246Z,94.48
2022-09-20T23:36:47.621Z,94.47
2022-09-20T23:39:16.601Z,94.43
2022-09-20T23:41:50.583Z,94.79
2022-09-20T23:44:20.745Z,94.71
2022-09-20T23:46:49.470Z,94.80
2022-09-20T23:49:18.508Z,94.81
2022-09-20T23:51:47.170Z,94.75
2022-09-20T23:54:15.855Z,94.66
2022-09-20T23:56:47.906Z,95.00
2022-09-20T23:59:17.291Z,94.60
